sensor_id;sensor_type;location;lat;lon;timestamp;P1;durP1;ratioP1;P2;durP2;ratioP2
19167;SDS011;9716;53.114;18.040;2023-03-14T00:00:05;4.03;;;2.05;;
19167;SDS011;9716;53.114;18.040;2023-03-14T00:03:08;4.57;;;2.30;;
19167;SDS011;9716;53.114;18.040;2023-03-14T00:05:37;6.10;;;2.58;;
19167;SDS011;9716;53.114;18.040;2023-03-14T00:08:05;4.22;;;2.65;;
19167;SDS011;9716;53.114;18.040;2023-03-14T00:10:36;3.58;;;2.20;;
19167;SDS011;9716;53.114;18.040;2023-03-14T00:13:05;3.40;;;2.20;;
19167;SDS011;9716;53.114;18.040;2023-03-14T00:15:34;7.00;;;2.30;;
19167;SDS011;9716;53.114;18.040;2023-03-14T00:18:02;3.90;;;2.40;;
19167;SDS011;9716;53.114;18.040;2023-03-14T00:20:31;3.53;;;2.10;;
19167;SDS011;9716;53.114;18.040;2023-03-14T00:22:59;5.05;;;2.58;;
19167;SDS011;9716;53.114;18.040;2023-03-14T00:25:29;2.78;;;1.95;;
19167;SDS011;9716;53.114;18.040;2023-03-14T00:27:58;3.70;;;2.08;;
19167;SDS011;9716;53.114;18.040;2023-03-14T00:30:27;4.28;;;2.83;;
19167;SDS011;9716;53.114;18.040;2023-03-14T00:32:55;3.08;;;2.30;;
19167;SDS011;9716;53.114;18.040;2023-03-14T00:35:24;6.57;;;2.25;;
19167;SDS011;9716;53.114;18.040;2023-03-14T00:37:52;3.35;;;1.95;;
19167;SDS011;9716;53.114;18.040;2023-03-14T00:40:21;5.30;;;2.50;;
19167;SDS011;9716;53.114;18.040;2023-03-14T00:42:49;4.20;;;2.50;;
19167;SDS011;9716;53.114;18.040;2023-03-14T00:45:19;5.20;;;2.72;;
19167;SDS011;9716;53.114;18.040;2023-03-14T00:47:47;6.13;;;2.72;;
19167;SDS011;9716;53.114;18.040;2023-03-14T00:50:16;4.75;;;2.85;;
19167;SDS011;9716;53.114;18.040;2023-03-14T00:52:44;4.43;;;2.28;;
19167;SDS011;9716;53.114;18.040;2023-03-14T00:55:17;3.38;;;2.25;;
19167;SDS011;9716;53.114;18.040;2023-03-14T00:57:45;5.05;;;2.65;;
19167;SDS011;9716;53.114;18.040;2023-03-14T01:00:14;8.20;;;2.88;;
19167;SDS011;9716;53.114;18.040;2023-03-14T01:02:44;2.78;;;1.95;;
19167;SDS011;9716;53.114;18.040;2023-03-14T01:05:14;3.95;;;1.80;;
19167;SDS011;9716;53.114;18.040;2023-03-14T01:07:42;3.40;;;2.00;;
19167;SDS011;9716;53.114;18.040;2023-03-14T01:10:11;3.35;;;2.30;;
19167;SDS011;9716;53.114;18.040;2023-03-14T01:12:39;3.88;;;1.83;;
19167;SDS011;9716;53.114;18.040;2023-03-14T01:15:08;6.57;;;2.40;;
19167;SDS011;9716;53.114;18.040;2023-03-14T01:17:36;9.80;;;2.30;;
19167;SDS011;9716;53.114;18.040;2023-03-14T01:20:08;4.20;;;2.03;;
19167;SDS011;9716;53.114;18.040;2023-03-14T01:22:39;4.90;;;2.17;;
19167;SDS011;9716;53.114;18.040;2023-03-14T01:25:09;4.60;;;2.65;;
19167;SDS011;9716;53.114;18.040;2023-03-14T01:27:38;6.80;;;2.03;;
19167;SDS011;9716;53.114;18.040;2023-03-14T01:30:08;6.07;;;1.73;;
19167;SDS011;9716;53.114;18.040;2023-03-14T01:32:37;7.95;;;2.55;;
19167;SDS011;9716;53.114;18.040;2023-03-14T01:35:08;3.25;;;2.03;;
19167;SDS011;9716;53.114;18.040;2023-03-14T01:37:36;4.18;;;2.20;;
19167;SDS011;9716;53.114;18.040;2023-03-14T01:40:05;5.22;;;1.80;;
19167;SDS011;9716;53.114;18.040;2023-03-14T01:42:34;3.55;;;1.67;;
19167;SDS011;9716;53.114;18.040;2023-03-14T01:45:02;6.95;;;2.17;;
19167;SDS011;9716;53.114;18.040;2023-03-14T01:47:31;3.80;;;2.53;;
19167;SDS011;9716;53.114;18.040;2023-03-14T01:50:01;2.95;;;1.73;;
19167;SDS011;9716;53.114;18.040;2023-03-14T01:52:36;2.22;;;1.67;;
19167;SDS011;9716;53.114;18.040;2023-03-14T01:55:09;6.63;;;2.55;;
19167;SDS011;9716;53.114;18.040;2023-03-14T01:57:43;1.77;;;1.38;;
19167;SDS011;9716;53.114;18.040;2023-03-14T02:00:14;2.70;;;1.80;;
19167;SDS011;9716;53.114;18.040;2023-03-14T02:02:45;2.78;;;1.85;;
19167;SDS011;9716;53.114;18.040;2023-03-14T02:05:17;3.53;;;2.08;;
19167;SDS011;9716;53.114;18.040;2023-03-14T02:07:50;2.17;;;1.77;;
19167;SDS011;9716;53.114;18.040;2023-03-14T02:10:21;2.47;;;1.85;;
19167;SDS011;9716;53.114;18.040;2023-03-14T02:12:52;9.18;;;2.53;;
19167;SDS011;9716;53.114;18.040;2023-03-14T02:15:23;2.65;;;1.50;;
19167;SDS011;9716;53.114;18.040;2023-03-14T02:17:51;6.28;;;2.55;;
19167;SDS011;9716;53.114;18.040;2023-03-14T02:20:26;5.10;;;2.25;;
19167;SDS011;9716;53.114;18.040;2023-03-14T02:23:03;5.50;;;1.75;;
19167;SDS011;9716;53.114;18.040;2023-03-14T02:25:35;4.47;;;1.90;;
19167;SDS011;9716;53.114;18.040;2023-03-14T02:28:09;3.58;;;1.70;;
19167;SDS011;9716;53.114;18.040;2023-03-14T02:30:39;3.60;;;2.15;;
19167;SDS011;9716;53.114;18.040;2023-03-14T02:33:08;2.88;;;1.48;;
19167;SDS011;9716;53.114;18.040;2023-03-14T02:35:41;2.30;;;1.50;;
19167;SDS011;9716;53.114;18.040;2023-03-14T02:38:14;2.58;;;1.58;;
19167;SDS011;9716;53.114;18.040;2023-03-14T02:40:47;3.05;;;1.60;;
19167;SDS011;9716;53.114;18.040;2023-03-14T02:43:18;4.78;;;1.98;;
19167;SDS011;9716;53.114;18.040;2023-03-14T02:45:48;3.88;;;1.83;;
19167;SDS011;9716;53.114;18.040;2023-03-14T02:48:18;3.65;;;1.85;;
19167;SDS011;9716;53.114;18.040;2023-03-14T02:50:49;5.63;;;1.77;;
19167;SDS011;9716;53.114;18.040;2023-03-14T02:53:20;1.52;;;1.20;;
19167;SDS011;9716;53.114;18.040;2023-03-14T02:55:51;2.33;;;1.33;;
19167;SDS011;9716;53.114;18.040;2023-03-14T02:58:21;3.20;;;1.70;;
19167;SDS011;9716;53.114;18.040;2023-03-14T03:00:50;2.65;;;1.77;;
19167;SDS011;9716;53.114;18.040;2023-03-14T03:03:18;3.65;;;1.20;;
19167;SDS011;9716;53.114;18.040;2023-03-14T03:05:48;2.65;;;1.70;;
19167;SDS011;9716;53.114;18.040;2023-03-14T03:08:17;2.85;;;1.45;;
19167;SDS011;9716;53.114;18.040;2023-03-14T03:10:47;1.60;;;1.50;;
19167;SDS011;9716;53.114;18.040;2023-03-14T03:13:15;1.98;;;1.33;;
19167;SDS011;9716;53.114;18.040;2023-03-14T03:15:46;2.45;;;1.35;;
19167;SDS011;9716;53.114;18.040;2023-03-14T03:18:14;3.58;;;1.60;;
19167;SDS011;9716;53.114;18.040;2023-03-14T03:20:43;1.50;;;1.15;;
19167;SDS011;9716;53.114;18.040;2023-03-14T03:23:12;1.33;;;1.13;;
19167;SDS011;9716;53.114;18.040;2023-03-14T03:25:40;1.23;;;1.10;;
19167;SDS011;9716;53.114;18.040;2023-03-14T03:28:09;1.60;;;1.08;;
19167;SDS011;9716;53.114;18.040;2023-03-14T03:30:38;1.80;;;1.35;;
19167;SDS011;9716;53.114;18.040;2023-03-14T03:33:07;1.63;;;1.10;;
19167;SDS011;9716;53.114;18.040;2023-03-14T03:35:41;1.48;;;1.25;;
19167;SDS011;9716;53.114;18.040;2023-03-14T03:38:11;1.63;;;1.00;;
19167;SDS011;9716;53.114;18.040;2023-03-14T03:40:39;1.40;;;1.00;;
19167;SDS011;9716;53.114;18.040;2023-03-14T03:43:08;4.07;;;1.45;;
19167;SDS011;9716;53.114;18.040;2023-03-14T03:45:36;2.25;;;1.10;;
19167;SDS011;9716;53.114;18.040;2023-03-14T03:48:05;1.90;;;1.15;;
19167;SDS011;9716;53.114;18.040;2023-03-14T03:50:35;2.88;;;1.58;;
19167;SDS011;9716;53.114;18.040;2023-03-14T03:53:03;1.77;;;1.30;;
19167;SDS011;9716;53.114;18.040;2023-03-14T03:55:32;5.35;;;1.40;;
19167;SDS011;9716;53.114;18.040;2023-03-14T03:58:00;3.70;;;1.75;;
19167;SDS011;9716;53.114;18.040;2023-03-14T04:00:29;1.65;;;1.20;;
19167;SDS011;9716;53.114;18.040;2023-03-14T04:02:58;1.38;;;1.27;;
19167;SDS011;9716;53.114;18.040;2023-03-14T04:05:27;1.48;;;1.13;;
19167;SDS011;9716;53.114;18.040;2023-03-14T04:07:57;2.70;;;1.17;;
19167;SDS011;9716;53.114;18.040;2023-03-14T04:10:25;1.40;;;1.15;;
19167;SDS011;9716;53.114;18.040;2023-03-14T04:12:54;3.28;;;1.27;;
19167;SDS011;9716;53.114;18.040;2023-03-14T04:15:22;1.98;;;1.23;;
19167;SDS011;9716;53.114;18.040;2023-03-14T04:17:51;2.25;;;1.30;;
19167;SDS011;9716;53.114;18.040;2023-03-14T04:20:23;3.20;;;1.27;;
19167;SDS011;9716;53.114;18.040;2023-03-14T04:22:54;1.95;;;1.30;;
19167;SDS011;9716;53.114;18.040;2023-03-14T04:25:24;3.30;;;1.27;;
19167;SDS011;9716;53.114;18.040;2023-03-14T04:27:53;1.40;;;1.23;;
19167;SDS011;9716;53.114;18.040;2023-03-14T04:30:21;1.50;;;1.40;;
19167;SDS011;9716;53.114;18.040;2023-03-14T04:32:49;0.93;;;0.93;;
19167;SDS011;9716;53.114;18.040;2023-03-14T04:35:18;2.35;;;1.13;;
19167;SDS011;9716;53.114;18.040;2023-03-14T04:37:46;2.10;;;1.75;;
19167;SDS011;9716;53.114;18.040;2023-03-14T04:40:17;2.15;;;1.23;;
19167;SDS011;9716;53.114;18.040;2023-03-14T04:42:46;1.02;;;0.98;;
19167;SDS011;9716;53.114;18.040;2023-03-14T04:45:14;1.63;;;1.23;;
19167;SDS011;9716;53.114;18.040;2023-03-14T04:47:43;2.80;;;1.40;;
19167;SDS011;9716;53.114;18.040;2023-03-14T04:50:11;1.25;;;0.98;;
19167;SDS011;9716;53.114;18.040;2023-03-14T04:52:40;2.53;;;1.40;;
19167;SDS011;9716;53.114;18.040;2023-03-14T04:55:08;2.95;;;1.42;;
19167;SDS011;9716;53.114;18.040;2023-03-14T04:57:38;2.00;;;1.60;;
19167;SDS011;9716;53.114;18.040;2023-03-14T05:00:07;2.90;;;1.90;;
19167;SDS011;9716;53.114;18.040;2023-03-14T05:02:36;3.35;;;1.60;;
19167;SDS011;9716;53.114;18.040;2023-03-14T05:05:05;2.13;;;1.50;;
19167;SDS011;9716;53.114;18.040;2023-03-14T05:07:34;2.25;;;1.58;;
19167;SDS011;9716;53.114;18.040;2023-03-14T05:10:03;2.13;;;1.70;;
19167;SDS011;9716;53.114;18.040;2023-03-14T05:12:32;3.22;;;1.63;;
19167;SDS011;9716;53.114;18.040;2023-03-14T05:15:02;1.85;;;1.33;;
19167;SDS011;9716;53.114;18.040;2023-03-14T05:17:31;2.75;;;1.77;;
19167;SDS011;9716;53.114;18.040;2023-03-14T05:20:00;3.25;;;1.60;;
19167;SDS011;9716;53.114;18.040;2023-03-14T05:22:36;2.95;;;1.98;;
19167;SDS011;9716;53.114;18.040;2023-03-14T05:25:04;3.55;;;1.95;;
19167;SDS011;9716;53.114;18.040;2023-03-14T05:27:34;4.68;;;2.10;;
19167;SDS011;9716;53.114;18.040;2023-03-14T05:30:05;2.22;;;1.73;;
19167;SDS011;9716;53.114;18.040;2023-03-14T05:32:34;3.83;;;2.20;;
19167;SDS011;9716;53.114;18.040;2023-03-14T05:35:03;2.45;;;2.05;;
19167;SDS011;9716;53.114;18.040;2023-03-14T05:37:31;2.00;;;1.80;;
19167;SDS011;9716;53.114;18.040;2023-03-14T05:40:01;3.20;;;2.08;;
19167;SDS011;9716;53.114;18.040;2023-03-14T05:42:31;2.92;;;2.00;;
19167;SDS011;9716;53.114;18.040;2023-03-14T05:45:00;3.15;;;1.80;;
19167;SDS011;9716;53.114;18.040;2023-03-14T05:47:29;2.72;;;1.80;;
19167;SDS011;9716;53.114;18.040;2023-03-14T05:49:58;14.95;;;2.70;;
19167;SDS011;9716;53.114;18.040;2023-03-14T05:52:26;2.90;;;1.75;;
19167;SDS011;9716;53.114;18.040;2023-03-14T05:54:55;3.28;;;2.40;;
19167;SDS011;9716;53.114;18.040;2023-03-14T05:57:23;3.55;;;2.15;;
19167;SDS011;9716;53.114;18.040;2023-03-14T05:59:51;4.45;;;1.90;;
19167;SDS011;9716;53.114;18.040;2023-03-14T06:02:20;3.17;;;2.00;;
19167;SDS011;9716;53.114;18.040;2023-03-14T06:04:50;1.85;;;1.52;;
19167;SDS011;9716;53.114;18.040;2023-03-14T06:07:18;3.03;;;2.05;;
19167;SDS011;9716;53.114;18.040;2023-03-14T06:09:47;3.15;;;1.90;;
19167;SDS011;9716;53.114;18.040;2023-03-14T06:12:15;4.15;;;2.22;;
19167;SDS011;9716;53.114;18.040;2023-03-14T06:14:44;3.53;;;2.22;;
19167;SDS011;9716;53.114;18.040;2023-03-14T06:17:12;8.27;;;2.22;;
19167;SDS011;9716;53.114;18.040;2023-03-14T06:19:41;4.88;;;2.22;;
19167;SDS011;9716;53.114;18.040;2023-03-14T06:22:10;4.13;;;1.92;;
19167;SDS011;9716;53.114;18.040;2023-03-14T06:24:39;3.90;;;1.85;;
19167;SDS011;9716;53.114;18.040;2023-03-14T06:27:07;8.43;;;2.38;;
19167;SDS011;9716;53.114;18.040;2023-03-14T06:29:36;2.05;;;1.73;;
19167;SDS011;9716;53.114;18.040;2023-03-14T06:32:04;3.35;;;1.70;;
19167;SDS011;9716;53.114;18.040;2023-03-14T06:34:33;3.75;;;1.85;;
19167;SDS011;9716;53.114;18.040;2023-03-14T06:37:01;3.33;;;1.85;;
19167;SDS011;9716;53.114;18.040;2023-03-14T06:39:32;4.68;;;2.05;;
19167;SDS011;9716;53.114;18.040;2023-03-14T06:42:00;3.70;;;2.25;;
19167;SDS011;9716;53.114;18.040;2023-03-14T06:44:29;3.15;;;2.10;;
19167;SDS011;9716;53.114;18.040;2023-03-14T06:46:57;3.60;;;1.90;;
19167;SDS011;9716;53.114;18.040;2023-03-14T06:49:26;3.35;;;1.83;;
19167;SDS011;9716;53.114;18.040;2023-03-14T06:51:54;5.60;;;2.20;;
19167;SDS011;9716;53.114;18.040;2023-03-14T06:54:23;12.40;;;2.20;;
19167;SDS011;9716;53.114;18.040;2023-03-14T06:56:53;9.27;;;2.22;;
19167;SDS011;9716;53.114;18.040;2023-03-14T06:59:21;5.60;;;2.05;;
19167;SDS011;9716;53.114;18.040;2023-03-14T07:01:50;2.08;;;1.67;;
19167;SDS011;9716;53.114;18.040;2023-03-14T07:04:18;4.28;;;2.10;;
19167;SDS011;9716;53.114;18.040;2023-03-14T07:06:47;3.65;;;2.30;;
19167;SDS011;9716;53.114;18.040;2023-03-14T07:09:16;4.03;;;2.50;;
19167;SDS011;9716;53.114;18.040;2023-03-14T07:11:44;1.73;;;1.63;;
19167;SDS011;9716;53.114;18.040;2023-03-14T07:14:14;3.45;;;1.90;;
19167;SDS011;9716;53.114;18.040;2023-03-14T07:16:43;3.58;;;2.00;;
19167;SDS011;9716;53.114;18.040;2023-03-14T07:19:11;2.15;;;1.77;;
19167;SDS011;9716;53.114;18.040;2023-03-14T07:21:40;2.85;;;1.70;;
19167;SDS011;9716;53.114;18.040;2023-03-14T07:24:08;3.20;;;2.25;;
19167;SDS011;9716;53.114;18.040;2023-03-14T07:26:37;5.63;;;2.15;;
19167;SDS011;9716;53.114;18.040;2023-03-14T07:29:05;2.85;;;2.33;;
19167;SDS011;9716;53.114;18.040;2023-03-14T07:31:35;3.30;;;2.20;;
19167;SDS011;9716;53.114;18.040;2023-03-14T07:34:04;3.38;;;1.98;;
19167;SDS011;9716;53.114;18.040;2023-03-14T07:36:32;3.53;;;2.13;;
19167;SDS011;9716;53.114;18.040;2023-03-14T07:39:01;2.67;;;2.10;;
19167;SDS011;9716;53.114;18.040;2023-03-14T07:41:31;2.08;;;1.83;;
19167;SDS011;9716;53.114;18.040;2023-03-14T07:44:00;2.63;;;1.60;;
19167;SDS011;9716;53.114;18.040;2023-03-14T07:46:28;5.03;;;2.47;;
19167;SDS011;9716;53.114;18.040;2023-03-14T07:48:58;4.45;;;2.17;;
19167;SDS011;9716;53.114;18.040;2023-03-14T07:51:26;6.45;;;2.53;;
19167;SDS011;9716;53.114;18.040;2023-03-14T07:53:55;7.00;;;1.98;;
19167;SDS011;9716;53.114;18.040;2023-03-14T07:56:23;6.43;;;2.85;;
19167;SDS011;9716;53.114;18.040;2023-03-14T07:58:52;4.47;;;1.83;;
19167;SDS011;9716;53.114;18.040;2023-03-14T08:01:20;3.78;;;2.20;;
19167;SDS011;9716;53.114;18.040;2023-03-14T08:03:49;4.18;;;2.35;;
19167;SDS011;9716;53.114;18.040;2023-03-14T08:06:19;3.95;;;2.25;;
19167;SDS011;9716;53.114;18.040;2023-03-14T08:08:47;5.28;;;2.08;;
19167;SDS011;9716;53.114;18.040;2023-03-14T08:11:15;4.43;;;2.00;;
19167;SDS011;9716;53.114;18.040;2023-03-14T08:13:44;2.42;;;1.90;;
19167;SDS011;9716;53.114;18.040;2023-03-14T08:16:16;3.65;;;2.13;;
19167;SDS011;9716;53.114;18.040;2023-03-14T08:18:45;2.85;;;2.03;;
19167;SDS011;9716;53.114;18.040;2023-03-14T08:21:13;5.43;;;2.13;;
19167;SDS011;9716;53.114;18.040;2023-03-14T08:23:43;3.45;;;2.30;;
19167;SDS011;9716;53.114;18.040;2023-03-14T08:26:11;4.32;;;2.17;;
19167;SDS011;9716;53.114;18.040;2023-03-14T08:28:40;4.38;;;1.98;;
19167;SDS011;9716;53.114;18.040;2023-03-14T08:31:08;7.95;;;2.58;;
19167;SDS011;9716;53.114;18.040;2023-03-14T08:33:38;8.38;;;2.00;;
19167;SDS011;9716;53.114;18.040;2023-03-14T08:36:06;5.90;;;1.85;;
19167;SDS011;9716;53.114;18.040;2023-03-14T08:38:36;3.80;;;2.08;;
19167;SDS011;9716;53.114;18.040;2023-03-14T08:41:06;4.55;;;1.60;;
19167;SDS011;9716;53.114;18.040;2023-03-14T08:43:34;2.00;;;1.80;;
19167;SDS011;9716;53.114;18.040;2023-03-14T08:46:03;4.45;;;2.30;;
19167;SDS011;9716;53.114;18.040;2023-03-14T08:48:32;4.22;;;2.53;;
19167;SDS011;9716;53.114;18.040;2023-03-14T08:51:04;4.13;;;2.28;;
19167;SDS011;9716;53.114;18.040;2023-03-14T08:53:33;3.22;;;2.15;;
19167;SDS011;9716;53.114;18.040;2023-03-14T08:56:01;6.97;;;2.58;;
19167;SDS011;9716;53.114;18.040;2023-03-14T08:58:31;3.25;;;1.75;;
19167;SDS011;9716;53.114;18.040;2023-03-14T09:01:00;2.38;;;2.08;;
19167;SDS011;9716;53.114;18.040;2023-03-14T09:03:28;3.63;;;1.85;;
19167;SDS011;9716;53.114;18.040;2023-03-14T09:06:00;6.30;;;2.53;;
19167;SDS011;9716;53.114;18.040;2023-03-14T09:08:31;5.38;;;2.10;;
19167;SDS011;9716;53.114;18.040;2023-03-14T09:10:59;9.20;;;2.92;;
19167;SDS011;9716;53.114;18.040;2023-03-14T09:13:28;3.55;;;2.05;;
19167;SDS011;9716;53.114;18.040;2023-03-14T09:15:58;4.07;;;2.25;;
19167;SDS011;9716;53.114;18.040;2023-03-14T09:18:26;3.22;;;1.92;;
19167;SDS011;9716;53.114;18.040;2023-03-14T09:20:55;2.05;;;1.67;;
19167;SDS011;9716;53.114;18.040;2023-03-14T09:23:24;6.35;;;2.28;;
19167;SDS011;9716;53.114;18.040;2023-03-14T09:25:54;2.75;;;2.15;;
19167;SDS011;9716;53.114;18.040;2023-03-14T09:28:24;4.32;;;1.75;;
19167;SDS011;9716;53.114;18.040;2023-03-14T09:30:53;3.67;;;1.67;;
19167;SDS011;9716;53.114;18.040;2023-03-14T09:33:23;6.50;;;2.00;;
19167;SDS011;9716;53.114;18.040;2023-03-14T09:35:52;5.10;;;1.85;;
19167;SDS011;9716;53.114;18.040;2023-03-14T09:38:20;3.33;;;1.88;;
19167;SDS011;9716;53.114;18.040;2023-03-14T09:40:49;2.58;;;1.67;;
19167;SDS011;9716;53.114;18.040;2023-03-14T09:43:18;10.77;;;1.85;;
19167;SDS011;9716;53.114;18.040;2023-03-14T09:45:49;2.22;;;1.55;;
19167;SDS011;9716;53.114;18.040;2023-03-14T09:48:19;2.25;;;1.50;;
19167;SDS011;9716;53.114;18.040;2023-03-14T09:50:51;3.42;;;1.67;;
19167;SDS011;9716;53.114;18.040;2023-03-14T09:53:23;3.58;;;1.80;;
19167;SDS011;9716;53.114;18.040;2023-03-14T09:55:54;4.03;;;2.00;;
19167;SDS011;9716;53.114;18.040;2023-03-14T09:58:26;4.78;;;1.67;;
19167;SDS011;9716;53.114;18.040;2023-03-14T10:00:55;1.77;;;1.42;;
19167;SDS011;9716;53.114;18.040;2023-03-14T10:03:26;2.72;;;1.67;;
19167;SDS011;9716;53.114;18.040;2023-03-14T10:06:00;3.53;;;1.67;;
19167;SDS011;9716;53.114;18.040;2023-03-14T10:08:29;10.45;;;1.80;;
19167;SDS011;9716;53.114;18.040;2023-03-14T10:10:57;3.90;;;1.25;;
19167;SDS011;9716;53.114;18.040;2023-03-14T10:13:27;1.40;;;1.08;;
19167;SDS011;9716;53.114;18.040;2023-03-14T10:15:58;2.03;;;1.10;;
19167;SDS011;9716;53.114;18.040;2023-03-14T10:18:30;1.02;;;1.00;;
19167;SDS011;9716;53.114;18.040;2023-03-14T10:21:03;9.63;;;1.50;;
19167;SDS011;9716;53.114;18.040;2023-03-14T10:23:34;3.15;;;1.40;;
19167;SDS011;9716;53.114;18.040;2023-03-14T10:26:06;2.13;;;1.42;;
19167;SDS011;9716;53.114;18.040;2023-03-14T10:28:38;2.05;;;1.20;;
19167;SDS011;9716;53.114;18.040;2023-03-14T10:31:11;1.55;;;1.30;;
19167;SDS011;9716;53.114;18.040;2023-03-14T10:33:40;1.17;;;1.02;;
19167;SDS011;9716;53.114;18.040;2023-03-14T10:36:17;2.58;;;1.17;;
19167;SDS011;9716;53.114;18.040;2023-03-14T10:38:48;1.67;;;0.75;;
19167;SDS011;9716;53.114;18.040;2023-03-14T10:41:17;1.90;;;1.27;;
19167;SDS011;9716;53.114;18.040;2023-03-14T10:43:51;2.95;;;1.13;;
19167;SDS011;9716;53.114;18.040;2023-03-14T10:46:23;1.42;;;1.27;;
19167;SDS011;9716;53.114;18.040;2023-03-14T10:48:54;2.30;;;1.63;;
19167;SDS011;9716;53.114;18.040;2023-03-14T10:51:25;7.28;;;1.00;;
19167;SDS011;9716;53.114;18.040;2023-03-14T10:53:56;4.10;;;1.40;;
19167;SDS011;9716;53.114;18.040;2023-03-14T10:56:26;6.68;;;1.42;;
19167;SDS011;9716;53.114;18.040;2023-03-14T10:59:00;3.10;;;1.38;;
19167;SDS011;9716;53.114;18.040;2023-03-14T11:01:36;2.28;;;1.30;;
19167;SDS011;9716;53.114;18.040;2023-03-14T11:04:13;3.58;;;1.35;;
19167;SDS011;9716;53.114;18.040;2023-03-14T11:06:52;1.10;;;0.90;;
19167;SDS011;9716;53.114;18.040;2023-03-14T11:09:29;4.55;;;1.15;;
19167;SDS011;9716;53.114;18.040;2023-03-14T11:12:05;1.20;;;1.10;;
19167;SDS011;9716;53.114;18.040;2023-03-14T11:14:46;4.60;;;1.42;;
19167;SDS011;9716;53.114;18.040;2023-03-14T11:17:23;2.05;;;1.23;;
19167;SDS011;9716;53.114;18.040;2023-03-14T11:20:03;5.05;;;1.60;;
19167;SDS011;9716;53.114;18.040;2023-03-14T11:22:46;1.02;;;1.02;;
19167;SDS011;9716;53.114;18.040;2023-03-14T11:25:21;6.28;;;1.83;;
19167;SDS011;9716;53.114;18.040;2023-03-14T11:27:55;2.85;;;1.23;;
19167;SDS011;9716;53.114;18.040;2023-03-14T11:30:32;2.67;;;1.17;;
19167;SDS011;9716;53.114;18.040;2023-03-14T11:33:08;2.63;;;1.40;;
19167;SDS011;9716;53.114;18.040;2023-03-14T11:35:43;4.05;;;1.40;;
19167;SDS011;9716;53.114;18.040;2023-03-14T11:38:23;1.70;;;0.90;;
19167;SDS011;9716;53.114;18.040;2023-03-14T11:40:58;1.48;;;1.05;;
19167;SDS011;9716;53.114;18.040;2023-03-14T11:43:28;2.75;;;1.08;;
19167;SDS011;9716;53.114;18.040;2023-03-14T11:46:03;3.13;;;1.40;;
19167;SDS011;9716;53.114;18.040;2023-03-14T11:48:36;6.38;;;1.30;;
19167;SDS011;9716;53.114;18.040;2023-03-14T11:51:12;4.25;;;1.05;;
19167;SDS011;9716;53.114;18.040;2023-03-14T11:53:53;6.28;;;1.35;;
19167;SDS011;9716;53.114;18.040;2023-03-14T11:56:28;1.73;;;1.50;;
19167;SDS011;9716;53.114;18.040;2023-03-14T11:59:01;1.33;;;1.02;;
19167;SDS011;9716;53.114;18.040;2023-03-14T12:01:36;17.13;;;1.42;;
19167;SDS011;9716;53.114;18.040;2023-03-14T12:04:19;1.10;;;1.00;;
19167;SDS011;9716;53.114;18.040;2023-03-14T12:06:55;6.20;;;1.48;;
19167;SDS011;9716;53.114;18.040;2023-03-14T12:09:27;3.97;;;1.23;;
19167;SDS011;9716;53.114;18.040;2023-03-14T12:11:57;4.97;;;1.55;;
19167;SDS011;9716;53.114;18.040;2023-03-14T12:14:29;3.15;;;1.10;;
19167;SDS011;9716;53.114;18.040;2023-03-14T12:17:04;1.60;;;1.05;;
19167;SDS011;9716;53.114;18.040;2023-03-14T12:19:34;8.15;;;1.35;;
19167;SDS011;9716;53.114;18.040;2023-03-14T12:22:21;2.10;;;1.38;;
19167;SDS011;9716;53.114;18.040;2023-03-14T12:24:56;6.95;;;1.52;;
19167;SDS011;9716;53.114;18.040;2023-03-14T12:27:43;2.65;;;1.80;;
19167;SDS011;9716;53.114;18.040;2023-03-14T12:30:18;5.82;;;1.40;;
19167;SDS011;9716;53.114;18.040;2023-03-14T12:36:00;5.85;;;1.88;;
19167;SDS011;9716;53.114;18.040;2023-03-14T12:38:56;1.63;;;1.10;;
19167;SDS011;9716;53.114;18.040;2023-03-14T12:41:42;2.10;;;1.42;;
19167;SDS011;9716;53.114;18.040;2023-03-14T12:50:18;2.10;;;1.50;;
19167;SDS011;9716;53.114;18.040;2023-03-14T12:52:55;6.15;;;1.83;;
19167;SDS011;9716;53.114;18.040;2023-03-14T12:55:45;6.22;;;1.85;;
19167;SDS011;9716;53.114;18.040;2023-03-14T12:58:22;5.32;;;1.75;;
19167;SDS011;9716;53.114;18.040;2023-03-14T13:00:59;6.80;;;1.90;;
19167;SDS011;9716;53.114;18.040;2023-03-14T13:03:36;3.30;;;1.38;;
19167;SDS011;9716;53.114;18.040;2023-03-14T13:06:08;2.45;;;1.25;;
19167;SDS011;9716;53.114;18.040;2023-03-14T13:08:38;7.93;;;1.80;;
19167;SDS011;9716;53.114;18.040;2023-03-14T13:11:10;3.63;;;2.05;;
19167;SDS011;9716;53.114;18.040;2023-03-14T13:13:42;2.15;;;1.42;;
19167;SDS011;9716;53.114;18.040;2023-03-14T13:16:15;2.00;;;1.10;;
19167;SDS011;9716;53.114;18.040;2023-03-14T13:18:45;8.40;;;1.60;;
19167;SDS011;9716;53.114;18.040;2023-03-14T13:21:16;8.85;;;1.52;;
19167;SDS011;9716;53.114;18.040;2023-03-14T13:23:56;2.22;;;1.30;;
19167;SDS011;9716;53.114;18.040;2023-03-14T13:26:31;2.53;;;1.50;;
19167;SDS011;9716;53.114;18.040;2023-03-14T13:29:09;1.25;;;1.15;;
19167;SDS011;9716;53.114;18.040;2023-03-14T13:31:43;9.45;;;2.08;;
19167;SDS011;9716;53.114;18.040;2023-03-14T13:34:12;4.00;;;1.83;;
19167;SDS011;9716;53.114;18.040;2023-03-14T13:36:41;2.85;;;1.50;;
19167;SDS011;9716;53.114;18.040;2023-03-14T13:39:10;5.53;;;1.83;;
19167;SDS011;9716;53.114;18.040;2023-03-14T13:41:41;2.35;;;1.20;;
19167;SDS011;9716;53.114;18.040;2023-03-14T13:44:15;8.25;;;1.48;;
19167;SDS011;9716;53.114;18.040;2023-03-14T13:46:46;3.33;;;1.20;;
19167;SDS011;9716;53.114;18.040;2023-03-14T13:49:16;2.45;;;1.60;;
19167;SDS011;9716;53.114;18.040;2023-03-14T13:51:49;3.45;;;1.65;;
19167;SDS011;9716;53.114;18.040;2023-03-14T13:54:18;3.85;;;1.42;;
19167;SDS011;9716;53.114;18.040;2023-03-14T13:56:48;2.95;;;1.40;;
19167;SDS011;9716;53.114;18.040;2023-03-14T13:59:29;4.18;;;1.63;;
19167;SDS011;9716;53.114;18.040;2023-03-14T14:01:59;3.55;;;1.88;;
19167;SDS011;9716;53.114;18.040;2023-03-14T14:04:32;6.00;;;1.88;;
19167;SDS011;9716;53.114;18.040;2023-03-14T14:07:06;1.77;;;1.45;;
19167;SDS011;9716;53.114;18.040;2023-03-14T14:09:37;4.68;;;2.15;;
19167;SDS011;9716;53.114;18.040;2023-03-14T14:12:10;2.15;;;1.40;;
19167;SDS011;9716;53.114;18.040;2023-03-14T14:14:45;4.15;;;1.83;;
19167;SDS011;9716;53.114;18.040;2023-03-14T14:17:18;3.60;;;1.60;;
19167;SDS011;9716;53.114;18.040;2023-03-14T14:19:49;5.40;;;2.08;;
19167;SDS011;9716;53.114;18.040;2023-03-14T14:22:19;4.60;;;1.50;;
19167;SDS011;9716;53.114;18.040;2023-03-14T14:24:48;2.88;;;1.58;;
19167;SDS011;9716;53.114;18.040;2023-03-14T14:27:19;4.47;;;1.52;;
19167;SDS011;9716;53.114;18.040;2023-03-14T14:30:00;2.60;;;1.60;;
19167;SDS011;9716;53.114;18.040;2023-03-14T14:32:36;4.80;;;1.83;;
19167;SDS011;9716;53.114;18.040;2023-03-14T14:35:05;2.50;;;1.73;;
19167;SDS011;9716;53.114;18.040;2023-03-14T14:37:40;4.13;;;1.65;;
19167;SDS011;9716;53.114;18.040;2023-03-14T14:40:14;3.88;;;1.45;;
19167;SDS011;9716;53.114;18.040;2023-03-14T14:42:54;11.13;;;1.40;;
19167;SDS011;9716;53.114;18.040;2023-03-14T14:45:33;2.58;;;1.40;;
19167;SDS011;9716;53.114;18.040;2023-03-14T14:48:03;3.70;;;1.58;;
19167;SDS011;9716;53.114;18.040;2023-03-14T14:50:34;2.55;;;1.88;;
19167;SDS011;9716;53.114;18.040;2023-03-14T14:53:19;4.68;;;1.35;;
19167;SDS011;9716;53.114;18.040;2023-03-14T14:55:50;2.35;;;1.50;;
19167;SDS011;9716;53.114;18.040;2023-03-14T14:58:22;4.50;;;1.88;;
19167;SDS011;9716;53.114;18.040;2023-03-14T15:00:54;3.60;;;1.30;;
19167;SDS011;9716;53.114;18.040;2023-03-14T15:03:28;2.10;;;1.35;;
19167;SDS011;9716;53.114;18.040;2023-03-14T15:05:58;2.88;;;1.52;;
19167;SDS011;9716;53.114;18.040;2023-03-14T15:08:27;5.22;;;1.02;;
19167;SDS011;9716;53.114;18.040;2023-03-14T15:10:55;5.28;;;1.50;;
19167;SDS011;9716;53.114;18.040;2023-03-14T15:13:25;2.70;;;1.35;;
19167;SDS011;9716;53.114;18.040;2023-03-14T15:15:54;4.55;;;1.35;;
19167;SDS011;9716;53.114;18.040;2023-03-14T15:18:24;3.55;;;1.88;;